Time;durP1;ratioP1;P1;durP2;ratioP2;P2;SDS_P1;SDS_P2;PMS_P1;PMS_P2;Temp;Humidity;BMP_temperature;BMP_pressure;BME280_temperature;BME280_humidity;BME280_pressure;Samples;Min_cycle;Max_cycle;Signal;HPM_P1;HPM_P2
2022/09/07 00:00:44;;;;;;;10.40;6.90;;;22.50;60.90;;;;;;4974805;28;20135;-73
2022/09/07 00:03:11;;;;;;;8.83;6.93;;;22.50;61.00;;;;;;4970837;28;20059;-73
2022/09/07 00:05:42;;;;;;;9.93;7.30;;;22.50;60.90;;;;;;4971297;28;20255;-73
2022/09/07 00:08:09;;;;;;;8.90;7.20;;;22.50;61.00;;;;;;4977507;28;20059;-73
2022/09/07 00:10:38;;;;;;;8.52;6.63;;;22.50;61.10;;;;;;4990618;28;20047;-73
2022/09/07 00:13:05;;;;;;;8.45;6.18;;;22.50;60.70;;;;;;4990033;28;20124;-73
2022/09/07 00:15:32;;;;;;;9.47;6.87;;;22.50;60.70;;;;;;4973207;28;20126;-73
2022/09/07 00:17:59;;;;;;;8.90;6.55;;;22.40;61.00;;;;;;4957131;28;20306;-73
2022/09/07 00:20:26;;;;;;;10.65;6.80;;;22.40;60.90;;;;;;4991896;28;20051;-73
2022/09/07 00:23:18;;;;;;;9.27;7.05;;;22.30;60.80;;;;;;4992770;28;20564;-73
2022/09/07 00:26:08;;;;;;;10.45;7.03;;;22.30;60.90;;;;;;4992097;28;20094;-73
2022/09/07 00:28:57;;;;;;;10.40;7.60;;;22.30;61.00;;;;;;4991674;28;20055;-73
2022/09/07 00:31:24;;;;;;;10.15;7.22;;;22.20;61.20;;;;;;4992144;28;21099;-73
2022/09/07 00:33:52;;;;;;;8.93;6.80;;;22.20;61.20;;;;;;4973378;28;20046;-73
2022/09/07 00:36:21;;;;;;;10.93;7.47;;;22.20;61.30;;;;;;4973219;28;20489;-72
2022/09/07 00:38:48;;;;;;;9.68;6.93;;;22.10;61.30;;;;;;4979378;28;20062;-73
2022/09/07 00:41:19;;;;;;;10.03;7.60;;;22.10;61.20;;;;;;4985974;28;20054;-73
2022/09/07 00:43:48;;;;;;;9.25;6.13;;;22.10;61.50;;;;;;4985550;28;20259;-73
2022/09/07 00:46:17;;;;;;;10.93;7.10;;;22.00;61.80;;;;;;4979948;28;20051;-73
2022/09/07 00:48:48;;;;;;;12.38;7.97;;;22.00;61.90;;;;;;4990911;28;20051;-73
2022/09/07 00:51:19;;;;;;;10.68;7.82;;;22.00;62.70;;;;;;4982577;28;20535;-73
2022/09/07 00:53:52;;;;;;;10.53;8.37;;;21.90;63.30;;;;;;4964565;28;20081;-72
2022/09/07 00:56:22;;;;;;;13.00;8.95;;;21.90;64.20;;;;;;4972120;28;20251;-73
2022/09/07 00:58:49;;;;;;;12.13;8.95;;;21.60;64.80;;;;;;4965421;28;20047;-72
2022/09/07 01:01:17;;;;;;;10.00;8.52;;;21.50;65.70;;;;;;4970467;28;20666;-72
2022/09/07 01:03:49;;;;;;;14.38;9.90;;;21.30;66.00;;;;;;4965693;28;20543;-72
2022/09/07 01:06:19;;;;;;;12.17;9.50;;;21.10;66.90;;;;;;4965416;28;20102;-72
2022/09/07 01:08:48;;;;;;;12.10;9.25;;;21.00;67.50;;;;;;4982965;28;20857;-72
2022/09/07 01:11:16;;;;;;;12.32;8.68;;;20.90;67.90;;;;;;4990541;28;20063;-72
2022/09/07 01:13:46;;;;;;;13.05;9.98;;;20.70;68.90;;;;;;4985869;28;20054;-72
2022/09/07 01:16:23;;;;;;;13.63;9.52;;;20.60;69.10;;;;;;4990014;28;20059;-72
2022/09/07 01:18:58;;;;;;;12.77;9.07;;;20.50;70.50;;;;;;4970519;28;20166;-72
2022/09/07 01:21:26;;;;;;;11.80;8.48;;;20.30;71.30;;;;;;4971224;28;20657;-72
2022/09/07 01:24:34;;;;;;;11.70;9.27;;;20.10;72.70;;;;;;4958946;28;20051;-72
2022/09/07 01:27:27;;;;;;;13.82;9.88;;;20.00;75.30;;;;;;4985113;28;20173;-72
2022/09/07 01:30:02;;;;;;;13.93;10.25;;;19.70;76.00;;;;;;4961452;28;21134;-72
2022/09/07 01:32:40;;;;;;;14.33;10.77;;;19.70;75.70;;;;;;4978170;28;20521;-72
2022/09/07 01:35:20;;;;;;;14.68;11.30;;;19.60;75.50;;;;;;4968484;28;20250;-72
2022/09/07 01:37:52;;;;;;;14.13;10.15;;;19.60;74.50;;;;;;4988188;28;20065;-72
2022/09/07 01:40:28;;;;;;;15.02;10.68;;;19.70;74.00;;;;;;4966830;28;20047;-71
2022/09/07 01:43:03;;;;;;;15.23;11.00;;;19.70;73.90;;;;;;4984372;28;20079;-72
2022/09/07 01:45:35;;;;;;;12.63;9.23;;;19.70;74.30;;;;;;4980276;28;20057;-72
2022/09/07 01:48:06;;;;;;;12.52;10.93;;;19.70;73.80;;;;;;4983548;28;20271;-71
2022/09/07 01:50:37;;;;;;;14.98;10.70;;;19.80;73.30;;;;;;4981827;28;20082;-72
2022/09/07 01:53:10;;;;;;;13.40;10.77;;;19.90;74.50;;;;;;4988509;28;20054;-72
2022/09/07 01:55:43;;;;;;;12.13;9.90;;;19.90;74.10;;;;;;4975256;28;20043;-72
2022/09/07 01:58:16;;;;;;;12.07;9.37;;;19.90;73.80;;;;;;4992323;28;20536;-72
2022/09/07 02:00:49;;;;;;;10.90;9.00;;;19.90;73.70;;;;;;4970745;28;20315;-72
2022/09/07 02:03:23;;;;;;;12.52;9.63;;;19.90;73.70;;;;;;4988025;28;20592;-72
2022/09/07 02:05:57;;;;;;;14.48;9.52;;;19.90;73.70;;;;;;4982156;28;20075;-72
2022/09/07 02:08:29;;;;;;;13.60;9.23;;;20.00;73.70;;;;;;4965406;28;21055;-72
2022/09/07 02:11:01;;;;;;;11.30;7.97;;;20.00;73.40;;;;;;4970530;28;20047;-72
2022/09/07 02:13:34;;;;;;;9.50;7.68;;;20.00;73.40;;;;;;4991024;28;20282;-72
2022/09/07 02:16:05;;;;;;;11.30;8.73;;;20.00;73.20;;;;;;4976357;28;20122;-72
2022/09/07 02:18:37;;;;;;;11.70;8.60;;;20.00;73.20;;;;;;4993790;28;20665;-72
2022/09/07 02:21:07;;;;;;;11.38;8.45;;;20.10;73.20;;;;;;4973135;28;20059;-72
2022/09/07 02:23:40;;;;;;;9.90;7.83;;;20.00;73.20;;;;;;4975890;28;20625;-72
2022/09/07 02:26:13;;;;;;;10.10;7.35;;;20.10;73.00;;;;;;4976429;28;20267;-72
2022/09/07 02:28:41;;;;;;;10.63;6.90;;;20.10;72.90;;;;;;4990502;28;20078;-72
2022/09/07 02:31:09;;;;;;;8.60;6.53;;;20.00;72.90;;;;;;5037087;23;20031;-74
2022/09/07 02:33:36;;;;;;;9.70;7.22;;;20.00;72.70;;;;;;4974478;28;20534;-72
2022/09/07 02:36:04;;;;;;;7.43;6.20;;;20.00;73.00;;;;;;4975710;28;20518;-72
2022/09/07 02:38:31;;;;;;;8.48;6.55;;;20.00;73.20;;;;;;4966844;28;20598;-72
2022/09/07 02:41:00;;;;;;;7.60;6.03;;;20.00;72.90;;;;;;4991019;28;20066;-72
2022/09/07 02:43:28;;;;;;;9.25;6.78;;;20.00;72.70;;;;;;4974109;28;20130;-72
2022/09/07 02:46:13;;;;;;;9.75;6.70;;;20.00;72.90;;;;;;4991084;28;20055;-72
2022/09/07 02:48:48;;;;;;;9.30;7.40;;;20.00;72.80;;;;;;4974110;28;20057;-72
2022/09/07 02:51:23;;;;;;;8.27;6.38;;;20.00;73.00;;;;;;4973579;28;20765;-72
2022/09/07 02:54:07;;;;;;;9.27;7.20;;;20.00;73.00;;;;;;4983679;28;20125;-72
2022/09/07 02:56:48;;;;;;;9.35;7.00;;;20.00;73.00;;;;;;4991078;28;20066;-72
2022/09/07 02:59:29;;;;;;;7.90;6.55;;;20.00;72.70;;;;;;4990817;28;20145;-72
2022/09/07 03:02:03;;;;;;;10.23;7.30;;;20.00;72.90;;;;;;4968155;28;20053;-72
2022/09/07 03:04:40;;;;;;;7.95;6.72;;;20.00;72.90;;;;;;4991375;28;20278;-72
2022/09/07 03:07:11;;;;;;;10.15;7.85;;;20.00;72.70;;;;;;4972227;28;20057;-72
2022/09/07 03:09:45;;;;;;;9.57;7.70;;;20.00;72.70;;;;;;4990604;28;20576;-72
2022/09/07 03:12:13;;;;;;;9.50;7.45;;;20.00;72.60;;;;;;4973708;28;20137;-72
2022/09/07 03:14:41;;;;;;;9.60;7.60;;;20.00;72.70;;;;;;4991526;28;20085;-72
2022/09/07 03:17:10;;;;;;;8.40;7.07;;;20.00;72.70;;;;;;4991164;28;20349;-72
2022/09/07 03:19:37;;;;;;;9.48;7.05;;;20.00;72.70;;;;;;4973060;28;20501;-72
2022/09/07 03:22:05;;;;;;;8.82;6.88;;;20.00;72.60;;;;;;4990910;28;20227;-72
2022/09/07 03:24:32;;;;;;;9.00;7.72;;;20.00;72.70;;;;;;4991110;28;20050;-72
2022/09/07 03:26:59;;;;;;;12.97;8.00;;;20.00;72.60;;;;;;4973719;28;20054;-72
2022/09/07 03:29:26;;;;;;;11.35;7.90;;;20.00;72.50;;;;;;4989661;28;20308;-72
2022/09/07 03:31:53;;;;;;;10.00;7.72;;;20.00;72.50;;;;;;4972606;28;20057;-72
2022/09/07 03:34:21;;;;;;;9.73;8.20;;;20.00;72.50;;;;;;4973361;28;20053;-72
2022/09/07 03:36:48;;;;;;;10.90;8.07;;;20.00;72.70;;;;;;4957133;28;20464;-72
2022/09/07 03:39:19;;;;;;;9.67;8.33;;;20.00;72.70;;;;;;4989469;28;20054;-72
2022/09/07 03:41:47;;;;;;;10.13;7.47;;;20.00;72.70;;;;;;4988661;28;20243;-72
2022/09/07 03:44:14;;;;;;;10.38;7.80;;;20.00;72.90;;;;;;4971789;28;20067;-71
2022/09/07 03:46:43;;;;;;;11.27;7.65;;;19.90;72.80;;;;;;4990533;28;20987;-72
2022/09/07 03:49:10;;;;;;;10.35;7.82;;;19.90;72.80;;;;;;4988761;28;20159;-72
2022/09/07 03:51:38;;;;;;;10.07;7.60;;;20.00;72.80;;;;;;4988883;28;20047;-72
2022/09/07 03:54:05;;;;;;;10.38;7.40;;;20.00;72.80;;;;;;4972947;28;20342;-72
2022/09/07 03:56:33;;;;;;;9.68;7.78;;;20.00;72.70;;;;;;4973146;28;20133;-72
2022/09/07 03:58:59;;;;;;;10.05;7.28;;;20.00;72.70;;;;;;4988145;28;20190;-72
2022/09/07 04:01:27;;;;;;;10.55;8.45;;;20.00;72.80;;;;;;4974266;28;20047;-72
2022/09/07 04:03:57;;;;;;;10.33;9.23;;;19.90;73.20;;;;;;4973238;28;20065;-72
2022/09/07 04:06:25;;;;;;;11.60;9.25;;;19.90;73.30;;;;;;4990117;28;20536;-72
2022/09/07 04:08:55;;;;;;;14.38;9.40;;;19.80;73.40;;;;;;4971708;28;20503;-72
2022/09/07 04:11:22;;;;;;;10.85;9.15;;;19.70;73.60;;;;;;4988967;28;20079;-72
2022/09/07 04:13:49;;;;;;;11.25;9.00;;;19.70;73.70;;;;;;4969862;28;20130;-72
2022/09/07 04:16:18;;;;;;;12.03;9.17;;;19.70;73.90;;;;;;4985325;28;20051;-72
2022/09/07 04:18:45;;;;;;;11.07;8.90;;;19.60;74.10;;;;;;4988843;28;20270;-72
2022/09/07 04:21:13;;;;;;;13.38;10.00;;;19.50;74.30;;;;;;4991358;28;20047;-72
2022/09/07 04:23:41;;;;;;;12.45;9.10;;;19.50;74.50;;;;;;4972064;28;20051;-72
2022/09/07 04:26:13;;;;;;;11.25;9.60;;;19.50;74.60;;;;;;4973961;28;20604;-72
2022/09/07 04:28:40;;;;;;;12.57;9.40;;;19.50;74.60;;;;;;4988979;28;20503;-72
2022/09/07 04:31:07;;;;;;;14.38;10.23;;;19.50;74.80;;;;;;4973450;28;20310;-72
2022/09/07 04:33:34;;;;;;;12.88;9.88;;;19.40;74.70;;;;;;4990493;28;20517;-71
2022/09/07 04:36:02;;;;;;;11.90;9.57;;;19.40;74.70;;;;;;4971914;28;20086;-72
2022/09/07 04:38:29;;;;;;;12.95;10.10;;;19.40;74.60;;;;;;4990639;28;20412;-72
2022/09/07 04:41:00;;;;;;;13.50;10.30;;;19.40;74.70;;;;;;4990201;28;20050;-72
2022/09/07 04:43:28;;;;;;;12.57;9.88;;;19.40;74.60;;;;;;4971233;28;20361;-72
2022/09/07 04:45:55;;;;;;;13.00;9.75;;;19.50;74.60;;;;;;4990255;28;20059;-72
2022/09/07 04:48:22;;;;;;;14.30;10.68;;;19.50;74.30;;;;;;4972268;28;20053;-72
2022/09/07 04:50:50;;;;;;;14.73;9.98;;;19.50;74.30;;;;;;4989638;28;20059;-72
2022/09/07 04:53:17;;;;;;;14.10;10.40;;;19.50;74.30;;;;;;4971815;28;20684;-72
2022/09/07 04:55:44;;;;;;;12.85;9.60;;;19.50;74.20;;;;;;4989499;28;20700;-72
2022/09/07 04:58:11;;;;;;;12.23;10.10;;;19.60;74.00;;;;;;4971021;28;20413;-72
2022/09/07 05:00:39;;;;;;;13.02;9.82;;;19.60;73.90;;;;;;4970845;28;20461;-72
2022/09/07 05:03:06;;;;;;;12.73;10.02;;;19.70;74.00;;;;;;4972270;28;21063;-72
2022/09/07 05:05:36;;;;;;;11.83;9.57;;;19.70;73.90;;;;;;4987531;28;20055;-72
2022/09/07 05:08:03;;;;;;;12.25;9.45;;;19.70;74.10;;;;;;4990678;28;20255;-72
2022/09/07 05:10:30;;;;;;;13.57;9.52;;;19.70;74.10;;;;;;4995401;28;20073;-72
2022/09/07 05:12:57;;;;;;;12.48;9.27;;;19.70;74.30;;;;;;4989136;28;20082;-72
2022/09/07 05:15:24;;;;;;;12.55;9.90;;;19.60;74.20;;;;;;4972890;28;20520;-72
2022/09/07 05:17:52;;;;;;;11.10;9.10;;;19.60;74.10;;;;;;4972690;28;20058;-72
2022/09/07 05:20:20;;;;;;;13.40;9.70;;;19.60;74.30;;;;;;4990034;28;21103;-72
2022/09/07 05:22:47;;;;;;;13.52;9.75;;;19.60;74.20;;;;;;4990585;28;20050;-72
2022/09/07 05:25:14;;;;;;;12.95;9.98;;;19.60;74.10;;;;;;4971500;28;20529;-72
2022/09/07 05:27:41;;;;;;;11.25;9.63;;;19.60;74.10;;;;;;4989748;28;20057;-72
2022/09/07 05:30:09;;;;;;;13.83;9.70;;;19.60;74.10;;;;;;4994758;28;20151;-72
2022/09/07 05:32:36;;;;;;;12.82;9.95;;;19.60;74.00;;;;;;4996753;28;20290;-72
2022/09/07 05:35:05;;;;;;;14.10;9.90;;;19.60;74.00;;;;;;4994135;28;20055;-72
2022/09/07 05:37:32;;;;;;;11.88;9.25;;;19.60;74.00;;;;;;4995206;28;20054;-72
2022/09/07 05:39:59;;;;;;;12.23;9.68;;;19.60;73.80;;;;;;4978885;28;20051;-72
2022/09/07 05:42:26;;;;;;;12.87;9.93;;;19.70;73.90;;;;;;4978875;28;20054;-71
2022/09/07 05:44:53;;;;;;;13.82;10.55;;;19.70;73.70;;;;;;4995327;28;20285;-72
2022/09/07 05:47:20;;;;;;;13.02;10.35;;;19.70;73.90;;;;;;4996670;28;20146;-72
2022/09/07 05:49:47;;;;;;;13.07;10.63;;;19.70;73.80;;;;;;4994422;28;20051;-72
2022/09/07 05:52:15;;;;;;;7.57;6.03;;;19.70;74.00;;;;;;4990586;28;20053;-69
2022/09/07 05:54:42;;;;;;;8.33;6.67;;;19.70;74.20;;;;;;4979102;28;20101;-70
2022/09/07 05:57:11;;;;;;;12.18;9.15;;;19.70;74.20;;;;;;4977202;28;20706;-70
2022/09/07 05:59:38;;;;;;;10.50;8.10;;;19.70;74.40;;;;;;4976012;28;20043;-70
2022/09/07 06:02:05;;;;;;;13.15;10.02;;;19.70;74.70;;;;;;4977975;28;20607;-70
2022/09/07 06:04:33;;;;;;;10.85;8.50;;;19.70;74.70;;;;;;4995338;28;20134;-70
2022/09/07 06:07:00;;;;;;;10.77;8.13;;;19.70;74.80;;;;;;4994328;28;20121;-69
2022/09/07 06:09:28;;;;;;;12.70;9.07;;;19.70;75.00;;;;;;4977801;28;20263;-70
2022/09/07 06:11:55;;;;;;;11.65;9.43;;;19.60;75.00;;;;;;4978469;28;20138;-69
2022/09/07 06:14:22;;;;;;;10.60;8.40;;;19.60;75.30;;;;;;4996302;28;20205;-69
2022/09/07 06:16:49;;;;;;;12.60;9.63;;;19.60;75.40;;;;;;4997163;28;20089;-70
2022/09/07 06:19:16;;;;;;;18.17;12.50;;;19.60;75.50;;;;;;4978354;28;20057;-71
2022/09/07 06:21:43;;;;;;;14.10;11.20;;;19.60;75.80;;;;;;4980106;28;20377;-70
2022/09/07 06:24:10;;;;;;;14.75;12.57;;;19.50;75.90;;;;;;4963130;28;20822;-72
2022/09/07 06:26:38;;;;;;;22.70;14.98;;;19.50;76.10;;;;;;4977396;28;20142;-70
2022/09/07 06:29:05;;;;;;;19.42;15.13;;;19.50;76.10;;;;;;4994086;28;20059;-70
2022/09/07 06:31:32;;;;;;;20.37;15.63;;;19.50;76.40;;;;;;4993938;28;20145;-70
2022/09/07 06:33:59;;;;;;;21.75;16.00;;;19.40;76.40;;;;;;4971372;28;20333;-71
2022/09/07 06:36:28;;;;;;;20.17;14.95;;;19.40;76.70;;;;;;4995440;28;20988;-71
2022/09/07 06:38:57;;;;;;;20.10;15.45;;;19.40;76.90;;;;;;4976594;28;20055;-71
2022/09/07 06:41:27;;;;;;;24.25;15.30;;;19.40;77.10;;;;;;4975988;28;20121;-70
2022/09/07 06:43:56;;;;;;;20.00;16.07;;;19.30;77.30;;;;;;4989323;28;20083;-71
2022/09/07 06:46:24;;;;;;;18.65;15.50;;;19.30;77.50;;;;;;4973915;28;20286;-71
2022/09/07 06:48:53;;;;;;;20.33;15.25;;;19.30;77.50;;;;;;4990956;28;20055;-72
2022/09/07 06:51:25;;;;;;;68.32;21.77;;;19.30;77.50;;;;;;4971915;28;20142;-72
2022/09/07 06:53:54;;;;;;;29.20;15.30;;;19.30;77.80;;;;;;4971158;28;20577;-72
2022/09/07 06:56:21;;;;;;;23.87;16.60;;;19.30;77.70;;;;;;4972070;28;20549;-72
2022/09/07 06:58:52;;;;;;;25.13;15.02;;;19.40;77.60;;;;;;4973370;28;20255;-71
2022/09/07 07:01:23;;;;;;;25.45;13.88;;;19.40;77.60;;;;;;4992218;28;20561;-72
2022/09/07 07:03:51;;;;;;;19.27;14.95;;;19.40;77.80;;;;;;4985614;28;20047;-70
2022/09/07 07:06:19;;;;;;;18.80;15.80;;;19.50;77.40;;;;;;4991211;28;20050;-71
2022/09/07 07:08:47;;;;;;;20.47;16.60;;;19.50;77.70;;;;;;4990798;28;20051;-72
2022/09/07 07:11:15;;;;;;;21.60;16.85;;;19.50;77.80;;;;;;4990763;28;20349;-71
2022/09/07 07:13:43;;;;;;;19.98;14.90;;;19.50;78.00;;;;;;4973206;28;20145;-70
2022/09/07 07:16:12;;;;;;;21.95;16.88;;;19.50;78.00;;;;;;4974085;28;20051;-69
2022/09/07 07:18:41;;;;;;;20.75;17.33;;;19.50;77.90;;;;;;4974386;28;20078;-69
2022/09/07 07:21:10;;;;;;;22.03;16.50;;;19.50;78.00;;;;;;4974766;28;20055;-71
2022/09/07 07:23:37;;;;;;;21.92;16.50;;;19.50;78.30;;;;;;4974424;28;20621;-71
2022/09/07 07:26:06;;;;;;;23.35;17.63;;;19.50;78.30;;;;;;4992062;28;20053;-71
2022/09/07 07:28:33;;;;;;;23.48;17.33;;;19.50;78.50;;;;;;4972947;28;20098;-69
2022/09/07 07:31:02;;;;;;;24.80;18.65;;;19.50;78.50;;;;;;4987894;28;20063;-70
2022/09/07 07:33:30;;;;;;;23.70;17.50;;;19.50;78.70;;;;;;4974820;28;20502;-70
2022/09/07 07:36:08;;;;;;;23.42;16.75;;;19.50;78.70;;;;;;4992384;28;20262;-72
2022/09/07 07:38:35;;;;;;;22.75;17.20;;;19.50;78.90;;;;;;4992527;28;20047;-72
2022/09/07 07:41:02;;;;;;;22.60;17.20;;;19.50;78.80;;;;;;4972691;28;20081;-71
2022/09/07 07:43:29;;;;;;;23.25;16.05;;;19.50;79.00;;;;;;4972679;28;20051;-70
2022/09/07 07:45:58;;;;;;;21.27;15.00;;;19.50;78.90;;;;;;4990867;28;20051;-71
2022/09/07 07:48:25;;;;;;;21.60;14.85;;;19.50;78.90;;;;;;4986912;28;20872;-70
2022/09/07 07:50:58;;;;;;;20.70;15.45;;;19.50;79.10;;;;;;4991050;28;20055;-71
2022/09/07 07:53:27;;;;;;;19.27;14.93;;;19.50;78.90;;;;;;4989771;28;20117;-72
2022/09/07 07:55:54;;;;;;;18.75;14.70;;;19.50;78.90;;;;;;4971941;28;20051;-72
2022/09/07 07:58:21;;;;;;;22.53;16.03;;;19.50;78.90;;;;;;4972363;28;20130;-75
2022/09/07 08:00:48;;;;;;;21.10;15.43;;;19.50;78.70;;;;;;4974278;28;20344;-73
2022/09/07 08:03:15;;;;;;;21.20;14.98;;;19.50;78.90;;;;;;4992488;28;20055;-74
2022/09/07 08:05:42;;;;;;;19.65;13.02;;;19.50;78.70;;;;;;4990295;28;20055;-73
2022/09/07 08:08:10;;;;;;;18.02;12.77;;;19.50;78.60;;;;;;4989816;28;20050;-72
2022/09/07 08:10:38;;;;;;;18.47;13.23;;;19.50;78.60;;;;;;4989319;28;20059;-73
2022/09/07 08:13:05;;;;;;;18.60;12.88;;;19.50;78.70;;;;;;4991806;28;20278;-74
2022/09/07 08:15:33;;;;;;;16.77;12.75;;;19.50;78.70;;;;;;4991443;28;20085;-74
2022/09/07 08:18:01;;;;;;;18.95;13.82;;;19.40;78.90;;;;;;4990605;28;20046;-73
2022/09/07 08:20:28;;;;;;;18.10;12.38;;;19.40;79.10;;;;;;4988069;28;20059;-74
2022/09/07 08:22:54;;;;;;;17.90;13.20;;;19.50;79.40;;;;;;4971317;28;20061;-75
2022/09/07 08:25:21;;;;;;;16.75;12.40;;;19.50;79.30;;;;;;4988752;28;20282;-73
2022/09/07 08:27:49;;;;;;;16.13;12.23;;;19.50;79.10;;;;;;4971571;28;20062;-72
2022/09/07 08:30:16;;;;;;;14.93;10.52;;;19.50;79.40;;;;;;4990239;28;20055;-72
2022/09/07 08:32:43;;;;;;;17.02;11.73;;;19.50;79.20;;;;;;4989932;28;20058;-75
2022/09/07 08:35:10;;;;;;;15.17;10.83;;;19.60;79.10;;;;;;4991936;28;20057;-76
2022/09/07 08:37:37;;;;;;;14.05;9.52;;;19.60;78.90;;;;;;4988337;28;20330;-75
2022/09/07 08:40:05;;;;;;;16.27;11.57;;;19.60;78.90;;;;;;4987399;28;20057;-75
2022/09/07 08:42:45;;;;;;;15.25;9.82;;;19.70;79.00;;;;;;4973310;28;20151;-75
2022/09/07 08:45:28;;;;;;;13.38;10.45;;;19.70;78.90;;;;;;4991937;28;20893;-75
2022/09/07 08:47:55;;;;;;;14.80;9.47;;;19.70;78.60;;;;;;4988429;28;20043;-77
2022/09/07 08:50:27;;;;;;;15.95;10.90;;;19.60;78.60;;;;;;4989719;28;20368;-74
2022/09/07 08:52:58;;;;;;;26.73;17.73;;;19.60;78.50;;;;;;4972404;28;20182;-75
2022/09/07 08:55:30;;;;;;;14.10;10.18;;;19.50;78.60;;;;;;4990071;28;20129;-75
2022/09/07 08:58:06;;;;;;;14.82;10.25;;;19.50;78.70;;;;;;4970794;28;20562;-75
2022/09/07 09:00:38;;;;;;;13.23;8.60;;;19.60;78.70;;;;;;4988461;28;20109;-75
2022/09/07 09:03:07;;;;;;;12.07;8.98;;;19.60;78.60;;;;;;4972940;28;20274;-70
2022/09/07 09:05:43;;;;;;;14.55;10.48;;;19.70;78.70;;;;;;4990236;28;20065;-72
2022/09/07 09:08:27;;;;;;;12.52;9.35;;;19.70;78.70;;;;;;4973391;28;20057;-72
2022/09/07 09:11:03;;;;;;;13.45;9.65;;;19.70;78.50;;;;;;4971303;28;20051;-74
2022/09/07 09:13:41;;;;;;;11.53;8.47;;;19.80;78.40;;;;;;4989867;28;20051;-74
2022/09/07 09:16:15;;;;;;;11.75;8.38;;;19.90;78.10;;;;;;5002896;28;20345;-77
2022/09/07 09:18:59;;;;;;;11.35;7.93;;;19.90;78.10;;;;;;4991889;28;20484;-72
2022/09/07 09:21:27;;;;;;;13.48;8.32;;;20.00;77.90;;;;;;5009547;28;20054;-75
2022/09/07 09:24:10;;;;;;;10.38;8.23;;;20.00;77.80;;;;;;5009561;28;20062;-76
2022/09/07 09:26:40;;;;;;;10.17;8.50;;;20.00;77.70;;;;;;5009653;28;20153;-76
2022/09/07 09:29:13;;;;;;;10.70;7.82;;;20.00;77.70;;;;;;5010927;28;20274;-79
2022/09/07 09:31:42;;;;;;;10.77;7.88;;;20.00;77.70;;;;;;4992748;28;20054;-78
2022/09/07 09:34:11;;;;;;;10.20;7.57;;;20.10;77.60;;;;;;5010636;28;20591;-77
2022/09/07 09:36:45;;;;;;;9.65;7.10;;;20.10;77.40;;;;;;5010595;28;20081;-74
2022/09/07 09:39:30;;;;;;;10.47;7.93;;;20.10;77.00;;;;;;4992984;28;20070;-75
2022/09/07 09:42:00;;;;;;;10.30;7.57;;;20.20;76.50;;;;;;4992904;28;20395;-75
2022/09/07 09:44:32;;;;;;;9.30;6.70;;;20.20;76.50;;;;;;5010361;28;20564;-76
2022/09/07 09:47:02;;;;;;;8.80;6.88;;;20.20;76.50;;;;;;5009357;28;20082;-74
2022/09/07 09:49:35;;;;;;;12.02;7.18;;;20.30;76.40;;;;;;5005707;28;20141;-73
2022/09/07 09:52:03;;;;;;;10.10;7.73;;;20.30;76.40;;;;;;4990947;28;20166;-74
2022/09/07 09:54:36;;;;;;;10.55;8.35;;;20.30;76.50;;;;;;4990685;28;20275;-75
2022/09/07 09:57:03;;;;;;;9.32;7.22;;;20.30;76.20;;;;;;4971925;28;20054;-75
2022/09/07 09:59:31;;;;;;;9.23;6.85;;;20.30;76.20;;;;;;4972446;28;20057;-74
2022/09/07 10:02:16;;;;;;;7.90;6.32;;;20.40;76.40;;;;;;4989768;28;20513;-75
2022/09/07 10:04:43;;;;;;;8.70;6.27;;;20.50;76.50;;;;;;4971923;28;20055;-74
2022/09/07 10:07:20;;;;;;;10.27;6.72;;;20.50;75.90;;;;;;4972297;28;20736;-73
2022/09/07 10:09:50;;;;;;;8.65;6.60;;;20.50;75.80;;;;;;4971672;28;20051;-74
2022/09/07 10:12:26;;;;;;;9.13;6.15;;;20.50;75.60;;;;;;4987575;28;20082;-73
2022/09/07 10:14:55;;;;;;;8.45;5.70;;;20.50;75.50;;;;;;4990124;28;20055;-73
2022/09/07 10:17:29;;;;;;;8.13;6.27;;;20.50;75.50;;;;;;4975874;28;20505;-74
2022/09/07 10:20:00;;;;;;;8.48;5.10;;;20.60;75.60;;;;;;4973398;28;21075;-74
2022/09/07 10:22:34;;;;;;;10.70;5.97;;;20.60;75.50;;;;;;4993632;28;20059;-75
2022/09/07 10:25:03;;;;;;;7.78;4.78;;;20.60;75.40;;;;;;4993452;28;20125;-75
2022/09/07 10:27:34;;;;;;;9.45;6.30;;;20.60;75.30;;;;;;4993090;28;20086;-75
2022/09/07 10:30:02;;;;;;;8.43;5.83;;;20.70;75.30;;;;;;4992835;28;20146;-77
2022/09/07 10:32:48;;;;;;;11.30;6.40;;;20.70;75.10;;;;;;4992738;28;20314;-75
2022/09/07 10:35:21;;;;;;;9.95;6.07;;;20.70;74.70;;;;;;4967612;28;20054;-72
2022/09/07 10:37:57;;;;;;;10.10;5.97;;;20.80;74.80;;;;;;4974455;28;20094;-76
2022/09/07 10:40:31;;;;;;;9.07;5.80;;;20.80;75.00;;;;;;4955959;28;20039;-72
2022/09/07 10:43:08;;;;;;;7.20;5.30;;;20.80;75.10;;;;;;4972341;28;20059;-76
2022/09/07 10:45:44;;;;;;;11.43;6.47;;;20.90;75.30;;;;;;4956360;28;20282;-74
2022/09/07 10:48:20;;;;;;;11.73;6.10;;;20.90;75.10;;;;;;4972574;28;20055;-75
2022/09/07 10:50:50;;;;;;;9.25;5.80;;;21.00;74.30;;;;;;4955561;28;20078;-76
2022/09/07 10:53:40;;;;;;;12.75;6.70;;;21.10;73.80;;;;;;4974373;28;20561;-76
2022/09/07 10:56:10;;;;;;;10.33;6.27;;;21.10;73.60;;;;;;4992935;28;20051;-75
2022/09/07 10:58:53;;;;;;;9.80;6.00;;;21.10;73.50;;;;;;4990455;28;20282;-74
2022/09/07 11:01:31;;;;;;;9.55;5.78;;;21.20;73.00;;;;;;4975791;28;20049;-76
2022/09/07 11:04:21;;;;;;;8.70;5.70;;;21.30;72.90;;;;;;4974068;28;20123;-77
2022/09/07 11:06:52;;;;;;;10.07;5.70;;;21.30;72.60;;;;;;4981573;28;20125;-76
2022/09/07 11:09:34;;;;;;;9.87;6.20;;;21.30;72.50;;;;;;4974096;28;20449;-74
2022/09/07 11:12:05;;;;;;;8.68;4.80;;;21.40;72.20;;;;;;4974261;28;20279;-79
2022/09/07 11:14:40;;;;;;;9.88;5.70;;;21.40;72.20;;;;;;4974085;28;20055;-76
2022/09/07 11:17:13;;;;;;;8.10;4.93;;;21.50;71.80;;;;;;4974059;28;20062;-73
2022/09/07 11:19:46;;;;;;;10.60;5.43;;;21.50;71.70;;;;;;4975692;28;20061;-73
2022/09/07 11:22:19;;;;;;;10.80;6.57;;;21.50;71.70;;;;;;4993179;28;20050;-75
2022/09/07 11:24:50;;;;;;;10.52;6.60;;;21.70;71.50;;;;;;4992827;28;20324;-74
2022/09/07 11:27:24;;;;;;;8.95;5.50;;;21.70;71.20;;;;;;4974446;28;20050;-77
2022/09/07 11:29:57;;;;;;;9.50;5.78;;;21.70;70.70;;;;;;4975188;28;20082;-76
2022/09/07 11:32:27;;;;;;;9.40;5.70;;;21.70;70.30;;;;;;4991429;28;20141;-76
2022/09/07 11:35:03;;;;;;;8.70;5.30;;;21.70;70.10;;;;;;4991226;28;20134;-78
2022/09/07 11:37:38;;;;;;;9.98;5.55;;;21.80;70.40;;;;;;4992921;28;20255;-76
2022/09/07 11:40:13;;;;;;;10.25;5.78;;;21.90;70.40;;;;;;4992287;28;20606;-75
2022/09/07 11:42:48;;;;;;;9.27;5.93;;;21.90;70.10;;;;;;4974825;28;20544;-76
2022/09/07 11:45:19;;;;;;;9.75;6.22;;;21.90;70.20;;;;;;4992500;28;20113;-79
2022/09/07 11:47:53;;;;;;;10.03;5.80;;;22.00;69.60;;;;;;4975124;28;20600;-75
2022/09/07 11:50:24;;;;;;;7.78;5.32;;;22.00;69.30;;;;;;4992185;28;20338;-75
2022/09/07 11:52:55;;;;;;;8.93;4.85;;;22.10;68.80;;;;;;4992392;28;20046;-74
2022/09/07 11:55:26;;;;;;;8.73;5.10;;;22.10;68.10;;;;;;4991897;28;20055;-75
2022/09/07 11:58:15;;;;;;;9.68;6.97;;;22.20;68.30;;;;;;4974464;28;20050;-76
2022/09/07 12:00:55;;;;;;;8.27;4.80;;;22.30;68.30;;;;;;4974024;28;20059;-75
2022/09/07 12:03:52;;;;;;;8.00;4.45;;;22.40;67.80;;;;;;4973085;28;20306;-73
2022/09/07 12:06:47;;;;;;;7.50;4.50;;;22.50;67.60;;;;;;4990507;28;20055;-71
2022/09/07 12:09:36;;;;;;;6.18;4.25;;;22.50;66.60;;;;;;4974070;28;20078;-71
2022/09/07 12:12:27;;;;;;;6.88;4.70;;;22.60;66.60;;;;;;4973411;28;20055;-70
2022/09/07 12:15:03;;;;;;;7.23;4.60;;;22.60;66.70;;;;;;4990668;28;20058;-70
2022/09/07 12:17:44;;;;;;;7.80;4.38;;;22.70;66.70;;;;;;4973854;28;20697;-70
2022/09/07 12:20:14;;;;;;;8.82;4.95;;;22.70;66.90;;;;;;4973595;28;20050;-70
2022/09/07 12:23:01;;;;;;;6.97;5.00;;;22.80;67.00;;;;;;4990640;28;20524;-71
2022/09/07 12:25:29;;;;;;;7.20;4.80;;;22.80;66.50;;;;;;4990501;28;20057;-71
2022/09/07 12:27:57;;;;;;;7.30;3.93;;;22.80;66.90;;;;;;4990187;28;20055;-71
2022/09/07 12:30:58;;;;;;;6.05;4.22;;;22.90;66.70;;;;;;4989894;28;20302;-70
2022/09/07 12:33:35;;;;;;;6.63;4.07;;;22.90;66.70;;;;;;4990117;28;20793;-71
2022/09/07 12:36:22;;;;;;;5.85;3.50;;;23.00;66.30;;;;;;4990276;28;20110;-71
2022/09/07 12:39:18;;;;;;;5.70;3.45;;;23.10;66.50;;;;;;4989308;28;20126;-70
2022/09/07 12:41:48;;;;;;;6.63;3.40;;;23.20;65.80;;;;;;4990300;28;20062;-71
2022/09/07 12:44:18;;;;;;;5.72;3.00;;;23.20;65.70;;;;;;4974043;28;20313;-71
2022/09/07 12:47:01;;;;;;;6.55;3.25;;;23.30;65.40;;;;;;4974057;28;20153;-71
2022/09/07 12:49:57;;;;;;;4.13;2.40;;;23.40;64.60;;;;;;4989470;28;20061;-71
2022/09/07 12:53:02;;;;;;;5.75;3.10;;;23.50;64.80;;;;;;4991473;28;20146;-70
2022/09/07 12:55:56;;;;;;;5.27;2.83;;;23.50;64.70;;;;;;4991606;28;20460;-70
2022/09/07 12:58:36;;;;;;;6.03;2.40;;;23.60;63.80;;;;;;4991354;28;20308;-71
2022/09/07 13:01:21;;;;;;;5.00;2.20;;;23.60;64.10;;;;;;4973435;28;20055;-71